Time;durP1;ratioP1;P1;durP2;ratioP2;P2;SDS_P1;SDS_P2;PMS_P1;PMS_P2;Temp;Humidity;BMP_temperature;BMP_pressure;BME280_temperature;BME280_humidity;BME280_pressure;Samples;Min_cycle;Max_cycle;Signal;HPM_P1;HPM_P2
2023/11/11 00:01:44;;;;;;;2.20;2.00;;;;;;;5.58;86.63;99532.78;5033541;28;20216;-69
2023/11/11 00:04:11;;;;;;;3.07;1.80;;;;;;;5.65;86.75;99530.44;5031595;28;20608;-71
2023/11/11 00:06:37;;;;;;;3.33;1.57;;;;;;;5.68;87.08;99530.56;5035750;28;20211;-71
2023/11/11 00:09:05;;;;;;;3.37;1.90;;;;;;;5.73;86.69;99527.75;5030749;28;20219;-71
2023/11/11 00:11:35;;;;;;;3.10;1.83;;;;;;;5.78;86.02;99524.97;5034094;28;20577;-70
2023/11/11 00:14:01;;;;;;;3.80;1.77;;;;;;;5.82;85.90;99525.88;5029733;28;20219;-70
2023/11/11 00:16:30;;;;;;;3.17;2.03;;;;;;;5.87;86.20;99519.69;5034704;28;20761;-70
2023/11/11 00:18:56;;;;;;;3.13;2.10;;;;;;;5.91;86.12;99513.47;5030026;28;20695;-70
2023/11/11 00:21:23;;;;;;;3.07;1.67;;;;;;;5.97;85.83;99519.31;5036511;28;20632;-71
2023/11/11 00:23:50;;;;;;;3.03;1.60;;;;;;;6.00;86.23;99514.19;5031156;28;20229;-70
2023/11/11 00:26:18;;;;;;;3.70;1.50;;;;;;;6.04;85.49;99509.06;5030449;28;20215;-71
2023/11/11 00:28:45;;;;;;;2.57;1.47;;;;;;;6.08;85.23;99518.59;5030230;28;20334;-69
2023/11/11 00:31:12;;;;;;;2.63;1.50;;;;;;;6.12;85.32;99510.84;5039374;28;20206;-70
2023/11/11 00:33:39;;;;;;;2.83;1.40;;;;;;;6.15;85.15;99510.19;5014244;28;20230;-71
2023/11/11 00:36:06;;;;;;;2.13;1.40;;;;;;;6.19;84.87;99518.97;5012719;28;21403;-71
2023/11/11 00:38:32;;;;;;;2.23;1.40;;;;;;;6.21;85.02;99522.03;5016157;28;20217;-68
2023/11/11 00:41:00;;;;;;;3.00;1.40;;;;;;;6.22;84.65;99520.94;5032193;28;20296;-70
2023/11/11 00:43:27;;;;;;;3.00;1.87;;;;;;;6.23;84.24;99520.63;5014569;28;20222;-70
2023/11/11 00:45:54;;;;;;;3.23;2.13;;;;;;;6.23;84.15;99514.63;5013112;28;20207;-70
2023/11/11 00:48:21;;;;;;;3.67;1.60;;;;;;;6.19;83.59;99516.34;5033970;28;20390;-71
2023/11/11 00:50:47;;;;;;;1.87;1.40;;;;;;;6.14;83.75;99514.69;5016099;28;20207;-70
2023/11/11 00:53:14;;;;;;;3.93;1.67;;;;;;;6.08;83.71;99504.72;5032869;28;20580;-70
2023/11/11 00:55:41;;;;;;;3.90;1.50;;;;;;;6.01;83.44;99510.47;5017885;28;20211;-69
2023/11/11 00:58:07;;;;;;;2.80;1.40;;;;;;;5.92;83.16;99509.78;5016194;28;20410;-70
2023/11/11 01:00:35;;;;;;;1.87;1.40;;;;;;;5.84;83.49;99518.47;5016934;28;20211;-70
2023/11/11 01:03:01;;;;;;;3.43;1.60;;;;;;;5.75;83.54;99517.72;5025016;28;20225;-70
2023/11/11 01:05:27;;;;;;;2.30;1.30;;;;;;;5.66;83.67;99517.03;5009944;28;20746;-70
2023/11/11 01:07:54;;;;;;;2.30;1.40;;;;;;;5.56;83.86;99514.78;5029018;28;20223;-70
2023/11/11 01:10:22;;;;;;;2.03;1.50;;;;;;;5.48;84.01;99512.19;5033425;28;20212;-68
2023/11/11 01:12:49;;;;;;;2.43;1.87;;;;;;;5.39;83.84;99503.66;5010731;28;20195;-69
2023/11/11 01:15:15;;;;;;;3.73;1.50;;;;;;;5.31;84.68;99504.44;5015179;28;20212;-70
2023/11/11 01:17:43;;;;;;;2.13;1.40;;;;;;;5.22;85.02;99512.34;5017357;28;20216;-70
2023/11/11 01:20:12;;;;;;;5.13;1.57;;;;;;;5.14;85.00;99502.69;5033199;28;20325;-69
2023/11/11 01:22:38;;;;;;;3.30;1.37;;;;;;;5.07;85.50;99504.28;5035913;28;20203;-70
2023/11/11 01:25:07;;;;;;;2.47;1.57;;;;;;;5.00;85.25;99498.75;5035863;28;20199;-70
2023/11/11 01:27:35;;;;;;;7.27;1.60;;;;;;;4.92;85.58;99496.94;5034181;28;20226;-68
2023/11/11 01:30:04;;;;;;;2.77;1.60;;;;;;;4.85;86.07;99496.66;5020229;28;20215;-69
2023/11/11 01:32:30;;;;;;;4.77;1.40;;;;;;;4.78;85.71;99496.38;5012807;28;20467;-69
2023/11/11 01:34:58;;;;;;;2.83;1.50;;;;;;;4.72;85.81;99510.69;5034703;28;20227;-69
2023/11/11 01:37:26;;;;;;;2.80;1.43;;;;;;;4.65;85.99;99505.94;5022299;28;20215;-69
2023/11/11 01:39:52;;;;;;;2.83;1.60;;;;;;;4.60;86.40;99511.34;5035607;28;20216;-69
2023/11/11 01:42:19;;;;;;;3.50;1.40;;;;;;;4.56;86.40;99510.41;5035147;28;20215;-69
2023/11/11 01:44:46;;;;;;;2.30;1.60;;;;;;;4.53;86.56;99505.06;5036147;28;20235;-69
2023/11/11 01:47:13;;;;;;;3.33;1.70;;;;;;;4.50;87.14;99500.47;5013444;28;20740;-69
2023/11/11 01:49:40;;;;;;;4.63;1.93;;;;;;;4.48;87.07;99502.59;5024058;28;20704;-70
2023/11/11 01:52:09;;;;;;;1.90;1.73;;;;;;;4.44;87.19;99494.63;5018482;28;20207;-68
2023/11/11 01:54:37;;;;;;;2.13;1.70;;;;;;;4.43;87.24;99500.16;5036587;28;20262;-69
2023/11/11 01:57:06;;;;;;;3.20;2.20;;;;;;;4.39;87.75;99497.41;5017370;28;20219;-69
2023/11/11 01:59:34;;;;;;;3.20;1.90;;;;;;;4.36;87.14;99484.19;5036050;28;20195;-70
2023/11/11 02:02:01;;;;;;;3.90;1.70;;;;;;;4.33;87.39;99484.78;5017667;28;20216;-69
2023/11/11 02:04:27;;;;;;;3.50;1.80;;;;;;;4.28;87.54;99484.97;5035338;28;20227;-68
2023/11/11 02:06:54;;;;;;;3.17;2.00;;;;;;;4.26;88.13;99481.91;5015963;28;20218;-69
2023/11/11 02:09:22;;;;;;;4.87;2.10;;;;;;;4.21;87.76;99475.00;5014851;28;20218;-69
2023/11/11 02:11:49;;;;;;;4.00;1.97;;;;;;;4.18;88.32;99472.22;5019134;28;20219;-68
2023/11/11 02:14:16;;;;;;;3.57;2.27;;;;;;;4.14;87.91;99466.09;5035326;28;20239;-70
2023/11/11 02:16:43;;;;;;;3.47;2.00;;;;;;;4.11;88.13;99467.47;5017041;28;20218;-69
2023/11/11 02:19:09;;;;;;;3.97;2.67;;;;;;;4.08;88.16;99462.88;5015840;28;20211;-70
2023/11/11 02:21:35;;;;;;;2.63;2.10;;;;;;;4.06;88.40;99469.47;5035756;28;20206;-70
2023/11/11 02:24:04;;;;;;;3.63;2.30;;;;;;;4.01;88.54;99453.97;5015086;28;20326;-70
2023/11/11 02:26:31;;;;;;;2.70;2.20;;;;;;;3.98;88.60;99457.19;5017121;28;20200;-68
2023/11/11 02:28:57;;;;;;;3.83;2.17;;;;;;;3.96;88.75;99464.56;5033745;28;20223;-69
2023/11/11 02:31:23;;;;;;;2.50;2.13;;;;;;;3.92;89.16;99471.47;5019523;28;20207;-68
2023/11/11 02:33:50;;;;;;;2.73;2.30;;;;;;;3.89;89.17;99461.66;5016703;28;20223;-70
2023/11/11 02:36:17;;;;;;;4.57;2.77;;;;;;;3.87;89.95;99461.19;5014806;28;20586;-70
2023/11/11 02:38:44;;;;;;;3.63;2.27;;;;;;;3.85;90.10;99471.19;5033571;28;20208;-68
2023/11/11 02:41:12;;;;;;;3.67;2.40;;;;;;;3.81;90.29;99465.81;5020092;28;20245;-70
2023/11/11 02:43:38;;;;;;;5.10;2.53;;;;;;;3.79;90.51;99467.94;5021345;28;20235;-70
2023/11/11 02:46:05;;;;;;;7.07;3.23;;;;;;;3.78;91.03;99461.19;5016259;28;20261;-70
2023/11/11 02:48:31;;;;;;;5.63;3.03;;;;;;;3.79;91.94;99461.97;5014301;28;20274;-69
2023/11/11 02:50:58;;;;;;;4.37;2.43;;;;;;;3.77;92.01;99464.09;5016311;28;20207;-70
2023/11/11 02:53:24;;;;;;;4.33;2.40;;;;;;;3.73;92.14;99463.94;5016556;28;20841;-70
2023/11/11 02:55:52;;;;;;;4.30;2.70;;;;;;;3.72;91.57;99457.19;5031665;28;20227;-69
2023/11/11 02:58:20;;;;;;;3.17;2.40;;;;;;;3.72;91.81;99451.19;5020072;28;20416;-70
2023/11/11 03:00:46;;;;;;;5.93;2.57;;;;;;;3.70;92.12;99454.13;5032637;28;20511;-69
2023/11/11 03:03:13;;;;;;;3.67;2.33;;;;;;;3.69;92.17;99457.78;5027032;28;20732;-70
2023/11/11 03:05:39;;;;;;;4.33;3.00;;;;;;;3.70;92.43;99455.97;5036053;28;20199;-71
2023/11/11 03:08:05;;;;;;;3.60;2.50;;;;;;;3.67;92.80;99449.53;5034726;28;20207;-72
2023/11/11 03:10:32;;;;;;;6.03;2.93;;;;;;;3.65;92.81;99448.28;5019481;28;20207;-70
2023/11/11 03:12:58;;;;;;;3.70;2.47;;;;;;;3.64;92.83;99444.91;5017625;28;20231;-69
2023/11/11 03:15:26;;;;;;;4.93;2.63;;;;;;;3.62;93.01;99449.66;5031408;28;20195;-69
2023/11/11 03:17:52;;;;;;;7.03;2.60;;;;;;;3.59;92.99;99442.47;5013216;28;20207;-70
2023/11/11 03:20:20;;;;;;;5.17;2.97;;;;;;;3.60;93.79;99446.59;5031324;28;21515;-70
2023/11/11 03:22:47;;;;;;;4.40;2.87;;;;;;;3.57;93.99;99436.78;5017825;28;20239;-70
2023/11/11 03:25:13;;;;;;;4.03;2.80;;;;;;;3.54;94.23;99434.00;5031389;28;20208;-69
2023/11/11 03:27:40;;;;;;;4.27;2.83;;;;;;;3.51;93.85;99430.16;5020195;28;20530;-71
2023/11/11 03:30:08;;;;;;;5.73;2.87;;;;;;;3.49;94.23;99432.31;5016272;28;20227;-70
2023/11/11 03:32:36;;;;;;;3.47;2.80;;;;;;;3.48;94.00;99430.00;5015686;28;20192;-69
2023/11/11 03:35:03;;;;;;;4.73;2.90;;;;;;;3.45;94.26;99422.78;5033009;28;21476;-70
2023/11/11 03:37:29;;;;;;;3.83;2.73;;;;;;;3.44;94.09;99426.47;5032817;28;20211;-70
2023/11/11 03:39:55;;;;;;;5.23;2.60;;;;;;;3.43;94.67;99425.69;5034999;28;20683;-72
2023/11/11 03:42:22;;;;;;;5.40;2.73;;;;;;;3.41;94.86;99430.47;5032082;28;20233;-70
2023/11/11 03:44:48;;;;;;;5.40;3.17;;;;;;;3.42;95.38;99424.16;5016237;28;20288;-70
2023/11/11 03:47:14;;;;;;;4.87;2.80;;;;;;;3.41;95.35;99430.47;5035738;28;20203;-71
2023/11/11 03:49:42;;;;;;;4.37;2.93;;;;;;;3.41;95.86;99427.84;5033743;28;20358;-71
2023/11/11 03:52:10;;;;;;;3.73;2.70;;;;;;;3.42;96.15;99426.03;5033830;28;20206;-71
2023/11/11 03:54:37;;;;;;;5.97;2.67;;;;;;;3.41;96.22;99425.25;5035020;28;20219;-71
2023/11/11 03:57:04;;;;;;;2.77;2.27;;;;;;;3.39;96.20;99421.41;5014181;28;20215;-71
2023/11/11 03:59:32;;;;;;;3.93;3.03;;;;;;;3.37;96.23;99432.13;5035123;28;20238;-72
2023/11/11 04:01:59;;;;;;;3.40;2.67;;;;;;;3.35;96.00;99425.69;5017541;28;20207;-72
2023/11/11 04:04:26;;;;;;;4.53;3.00;;;;;;;3.32;96.20;99427.06;5017372;28;20752;-71
2023/11/11 04:06:54;;;;;;;3.70;2.33;;;;;;;3.32;96.11;99428.94;5015236;28;20233;-69
2023/11/11 04:09:21;;;;;;;4.70;2.93;;;;;;;3.30;96.40;99433.66;5019300;28;20219;-70
2023/11/11 04:11:47;;;;;;;5.43;3.07;;;;;;;3.26;96.32;99436.13;5018294;28;20203;-70
2023/11/11 04:14:13;;;;;;;4.83;3.00;;;;;;;3.23;96.64;99436.75;5017826;28;21408;-69
2023/11/11 04:16:40;;;;;;;3.70;2.53;;;;;;;3.19;96.33;99440.25;5038329;28;20199;-69
2023/11/11 04:19:08;;;;;;;3.43;2.70;;;;;;;3.18;96.11;99436.88;5014180;28;20276;-70
2023/11/11 04:21:34;;;;;;;6.23;2.93;;;;;;;3.14;96.27;99435.97;5016264;28;20306;-70
2023/11/11 04:24:02;;;;;;;3.37;2.57;;;;;;;3.15;96.85;99445.31;5015178;28;20235;-70
2023/11/11 04:26:28;;;;;;;5.40;3.00;;;;;;;3.15;96.74;99437.47;5015644;28;20214;-70
2023/11/11 04:28:54;;;;;;;6.50;3.40;;;;;;;3.16;97.26;99435.66;5016435;28;20234;-70
2023/11/11 04:31:21;;;;;;;4.00;2.97;;;;;;;3.12;97.12;99438.09;5030243;28;20219;-71
2023/11/11 04:33:47;;;;;;;5.93;3.27;;;;;;;3.09;97.09;99443.13;5033924;28;20300;-70
2023/11/11 04:36:14;;;;;;;4.57;3.10;;;;;;;3.07;96.46;99440.81;5030958;28;20688;-69
2023/11/11 04:38:42;;;;;;;4.63;3.27;;;;;;;3.08;96.82;99439.00;5033462;28;20633;-69
2023/11/11 04:41:11;;;;;;;5.87;3.53;;;;;;;3.07;96.71;99435.63;5035106;28;20213;-69
2023/11/11 04:43:38;;;;;;;6.70;3.43;;;;;;;3.07;96.67;99433.00;5032029;28;20262;-70
2023/11/11 04:46:06;;;;;;;7.37;3.47;;;;;;;3.08;97.11;99436.41;5033951;28;20218;-70
2023/11/11 04:48:32;;;;;;;5.63;3.40;;;;;;;3.09;97.05;99432.72;5031450;28;20212;-71
2023/11/11 04:50:59;;;;;;;6.57;3.70;;;;;;;3.10;97.06;99437.63;5034189;28;20210;-71
2023/11/11 04:53:26;;;;;;;7.50;3.93;;;;;;;3.11;97.27;99435.78;5040323;28;20744;-70
2023/11/11 04:55:52;;;;;;;5.27;3.70;;;;;;;3.11;97.15;99439.16;5040479;28;20202;-71
2023/11/11 04:58:20;;;;;;;6.57;3.80;;;;;;;3.10;96.56;99436.84;5043517;28;20206;-70
2023/11/11 05:00:46;;;;;;;5.27;3.40;;;;;;;3.11;96.53;99439.16;5039654;28;20560;-70
2023/11/11 05:03:13;;;;;;;5.37;3.83;;;;;;;3.13;96.59;99437.03;5039111;28;20238;-70
2023/11/11 05:05:39;;;;;;;7.77;3.90;;;;;;;3.14;96.50;99435.97;5040667;28;20210;-71
2023/11/11 05:08:06;;;;;;;9.60;4.43;;;;;;;3.18;96.60;99438.72;5037298;28;20208;-71
2023/11/11 05:10:33;;;;;;;7.60;4.40;;;;;;;3.19;96.78;99432.44;5036344;28;20244;-70
2023/11/11 05:13:01;;;;;;;13.30;4.77;;;;;;;3.21;96.90;99428.44;5039357;28;20765;-70
2023/11/11 05:15:30;;;;;;;7.60;4.67;;;;;;;3.24;97.08;99433.06;5042231;28;20207;-68
2023/11/11 05:17:57;;;;;;;8.57;4.97;;;;;;;3.26;97.20;99440.59;5040473;28;20293;-71
2023/11/11 05:20:23;;;;;;;7.03;5.07;;;;;;;3.29;97.38;99432.13;5042228;28;20222;-70
2023/11/11 05:22:49;;;;;;;7.67;4.93;;;;;;;3.29;97.66;99435.53;5044422;28;20210;-70
2023/11/11 05:25:16;;;;;;;6.03;4.10;;;;;;;3.31;97.56;99433.38;5040293;28;20555;-70
2023/11/11 05:27:42;;;;;;;8.80;4.57;;;;;;;3.33;97.46;99439.03;5036215;28;20228;-70
2023/11/11 05:30:10;;;;;;;8.33;4.47;;;;;;;3.35;97.59;99436.91;5039372;28;20600;-71
2023/11/11 05:32:38;;;;;;;6.77;4.50;;;;;;;3.35;98.32;99436.91;5039761;28;20220;-71
2023/11/11 05:35:05;;;;;;;9.40;4.60;;;;;;;3.37;98.29;99445.19;5039132;28;20207;-71
2023/11/11 05:37:32;;;;;;;6.60;4.33;;;;;;;3.36;98.02;99443.66;5041736;28;20227;-71
2023/11/11 05:39:58;;;;;;;9.90;4.43;;;;;;;3.36;98.22;99438.44;5038134;28;20199;-71
2023/11/11 05:42:25;;;;;;;7.00;4.50;;;;;;;3.38;98.23;99449.31;5041023;28;20199;-71
2023/11/11 05:44:51;;;;;;;6.37;4.37;;;;;;;3.38;98.66;99445.97;5037921;28;20231;-69
2023/11/11 05:47:18;;;;;;;5.47;4.17;;;;;;;3.37;98.95;99455.63;5041824;28;20285;-71
2023/11/11 05:49:46;;;;;;;7.47;4.17;;;;;;;3.35;98.69;99447.34;5039278;28;20263;-71
2023/11/11 05:52:12;;;;;;;8.40;4.50;;;;;;;3.35;98.64;99455.19;5038396;28;20280;-71
2023/11/11 05:54:39;;;;;;;6.13;4.30;;;;;;;3.36;98.35;99450.69;5041824;28;20220;-69
2023/11/11 05:57:05;;;;;;;7.83;4.77;;;;;;;3.34;98.75;99453.63;5037712;28;20211;-69
2023/11/11 05:59:32;;;;;;;7.27;4.20;;;;;;;3.32;98.60;99449.81;5038151;28;20199;-68
2023/11/11 06:01:58;;;;;;;6.90;3.67;;;;;;;3.28;98.69;99454.88;5040592;28;23874;-70
2023/11/11 06:04:25;;;;;;;6.47;4.00;;;;;;;3.25;98.37;99460.69;5036673;28;20740;-70
2023/11/11 06:06:55;;;;;;;6.77;4.20;;;;;;;3.23;98.52;99462.06;5038031;28;20218;-69
2023/11/11 06:09:22;;;;;;;8.70;4.30;;;;;;;3.23;98.69;99456.84;5021260;28;20230;-71
2023/11/11 06:11:49;;;;;;;9.90;4.67;;;;;;;3.19;98.52;99461.13;5037433;28;20661;-70
2023/11/11 06:14:17;;;;;;;8.57;4.60;;;;;;;3.15;98.68;99466.19;5038180;28;20235;-69
2023/11/11 06:16:44;;;;;;;7.13;5.07;;;;;;;3.14;98.70;99458.66;5034256;28;20577;-68
2023/11/11 06:19:11;;;;;;;6.37;4.67;;;;;;;3.15;98.80;99468.00;5037073;28;20257;-71
2023/11/11 06:21:37;;;;;;;8.53;5.20;;;;;;;3.14;98.85;99469.84;5038710;28;20207;-70
2023/11/11 06:24:06;;;;;;;10.40;5.23;;;;;;;3.14;99.25;99466.47;5019363;28;20231;-70
2023/11/11 06:26:32;;;;;;;8.20;5.07;;;;;;;3.12;99.08;99468.63;5038718;28;20208;-68
2023/11/11 06:28:59;;;;;;;11.60;4.87;;;;;;;3.12;99.31;99471.97;5035150;28;20218;-71
2023/11/11 06:31:26;;;;;;;13.13;4.83;;;;;;;3.17;99.50;99463.28;5035650;28;20211;-69
2023/11/11 06:33:53;;;;;;;6.90;4.73;;;;;;;3.19;99.84;99464.50;5036688;28;20655;-70
2023/11/11 06:36:19;;;;;;;6.80;4.30;;;;;;;3.20;99.94;99460.03;5034951;28;20338;-70
2023/11/11 06:38:46;;;;;;;7.93;5.33;;;;;;;3.22;100.00;99463.13;5036674;28;20210;-69
2023/11/11 06:41:14;;;;;;;10.10;5.40;;;;;;;3.23;100.00;99473.25;5038044;28;20217;-70
2023/11/11 06:43:40;;;;;;;11.53;5.30;;;;;;;3.27;99.95;99481.25;5036466;28;20837;-70
2023/11/11 06:46:07;;;;;;;7.50;5.33;;;;;;;3.33;99.97;99482.63;5035832;28;20214;-70
2023/11/11 06:48:33;;;;;;;10.33;6.13;;;;;;;3.37;99.75;99479.09;5038431;28;20313;-70
2023/11/11 06:51:00;;;;;;;13.43;7.10;;;;;;;3.44;100.00;99476.84;5036651;28;20281;-70
2023/11/11 06:53:26;;;;;;;16.23;6.40;;;;;;;3.51;99.96;99481.59;5036778;28;20249;-71
2023/11/11 06:55:53;;;;;;;15.27;8.03;;;;;;;3.59;99.99;99486.06;5029535;28;20211;-70
2023/11/11 06:58:20;;;;;;;11.67;7.90;;;;;;;3.65;99.59;99485.63;5030531;28;20210;-70
2023/11/11 07:00:46;;;;;;;18.70;8.17;;;;;;;3.73;99.67;99491.91;5037587;28;20238;-69
2023/11/11 07:03:13;;;;;;;10.70;7.07;;;;;;;3.81;99.69;99484.09;5036082;28;20227;-70
2023/11/11 07:05:39;;;;;;;13.40;6.80;;;;;;;3.89;99.82;99485.91;5033484;28;20313;-70
2023/11/11 07:08:06;;;;;;;15.17;7.47;;;;;;;3.96;99.60;99483.63;5033902;28;20227;-70
2023/11/11 07:10:33;;;;;;;12.33;6.83;;;;;;;4.03;99.93;99488.34;5031665;28;20998;-71
2023/11/11 07:13:00;;;;;;;11.13;7.47;;;;;;;4.10;99.90;99481.59;5031610;28;20218;-69
2023/11/11 07:15:28;;;;;;;13.07;7.20;;;;;;;4.17;99.78;99487.13;5029896;28;20235;-70
2023/11/11 07:17:54;;;;;;;11.53;7.03;;;;;;;4.23;99.32;99479.88;5033329;28;20208;-70
2023/11/11 07:20:21;;;;;;;16.90;7.47;;;;;;;4.30;99.05;99486.19;5037227;28;20199;-70
2023/11/11 07:22:48;;;;;;;13.13;6.73;;;;;;;4.39;98.93;99492.16;5036301;28;20679;-69
2023/11/11 07:25:16;;;;;;;10.40;6.60;;;;;;;4.46;98.76;99483.88;5029552;28;20699;-69
2023/11/11 07:27:43;;;;;;;15.13;8.30;;;;;;;4.53;99.42;99484.13;5027827;28;20282;-68
2023/11/11 07:30:12;;;;;;;14.00;8.17;;;;;;;4.61;99.08;99491.22;5031295;28;20223;-71
2023/11/11 07:32:40;;;;;;;13.83;7.67;;;;;;;4.68;98.93;99494.88;5030219;28;20674;-69
2023/11/11 07:35:10;;;;;;;14.17;8.23;;;;;;;4.76;99.36;99486.22;5035314;28;20308;-70
2023/11/11 07:37:38;;;;;;;14.57;7.80;;;;;;;4.83;98.83;99496.19;5027832;28;20206;-69
2023/11/11 07:40:08;;;;;;;11.73;7.40;;;;;;;4.91;98.68;99495.38;5030757;28;20619;-71
2023/11/11 07:42:34;;;;;;;17.60;8.13;;;;;;;4.99;98.36;99494.59;5011661;28;20696;-70
2023/11/11 07:45:04;;;;;;;13.93;7.90;;;;;;;5.04;98.27;99497.81;5014044;28;20692;-71
2023/11/11 07:47:30;;;;;;;13.47;8.07;;;;;;;5.11;97.70;99502.53;5038283;28;20319;-70
2023/11/11 07:49:58;;;;;;;12.40;7.63;;;;;;;5.16;97.71;99502.38;5038006;28;20219;-69
2023/11/11 07:52:25;;;;;;;12.83;8.07;;;;;;;5.22;96.96;99501.09;5037534;28;20685;-71
2023/11/11 07:54:52;;;;;;;13.17;7.67;;;;;;;5.26;96.63;99508.03;5035004;28;20441;-70
2023/11/11 07:57:19;;;;;;;12.37;7.33;;;;;;;5.31;96.33;99502.59;5012779;28;20207;-70
2023/11/11 07:59:46;;;;;;;15.87;8.43;;;;;;;5.37;96.01;99503.19;5034107;28;20215;-70
2023/11/11 08:02:14;;;;;;;12.40;7.73;;;;;;;5.41;95.74;99507.47;5034389;28;20223;-70
2023/11/11 08:04:41;;;;;;;14.73;8.30;;;;;;;5.48;95.81;99504.34;5035885;28;20230;-68
2023/11/11 08:07:11;;;;;;;14.17;7.40;;;;;;;5.52;95.46;99500.78;5032859;28;20563;-70
2023/11/11 08:09:36;;;;;;;14.90;7.70;;;;;;;5.60;94.71;99504.44;5033419;28;20224;-71
2023/11/11 08:12:04;;;;;;;14.77;8.70;;;;;;;5.68;95.29;99508.84;5036654;28;20216;-69
2023/11/11 08:14:31;;;;;;;18.53;8.93;;;;;;;5.75;95.25;99502.00;5036492;28;20644;-70
2023/11/11 08:16:57;;;;;;;14.40;8.50;;;;;;;5.85;94.84;99514.00;5028124;28;20221;-69
2023/11/11 08:19:24;;;;;;;15.00;8.27;;;;;;;5.93;94.16;99510.53;5033115;28;20203;-71
2023/11/11 08:21:50;;;;;;;11.03;7.60;;;;;;;6.02;94.47;99504.13;5033722;28;20221;-70
2023/11/11 08:24:18;;;;;;;13.33;8.33;;;;;;;6.15;93.62;99512.81;5031299;28;20321;-71
2023/11/11 08:26:45;;;;;;;15.03;8.80;;;;;;;6.24;92.39;99513.50;5032131;28;20684;-70
2023/11/11 08:29:11;;;;;;;13.63;8.23;;;;;;;6.34;92.03;99507.88;5027891;28;20203;-70
2023/11/11 08:31:39;;;;;;;13.50;8.50;;;;;;;6.42;92.43;99520.16;5027835;28;20230;-70
2023/11/11 08:34:06;;;;;;;15.03;7.90;;;;;;;6.52;91.78;99511.88;5028248;28;20310;-70
2023/11/11 08:36:32;;;;;;;12.30;7.67;;;;;;;6.61;90.21;99517.78;5031358;28;20211;-71
2023/11/11 08:38:58;;;;;;;13.67;7.17;;;;;;;6.71;89.82;99525.25;5032082;28;20231;-69
2023/11/11 08:41:26;;;;;;;11.97;8.03;;;;;;;6.77;90.43;99519.47;5034337;28;20563;-70
2023/11/11 08:43:52;;;;;;;19.87;7.40;;;;;;;6.86;89.82;99522.75;5014568;28;20238;-70
2023/11/11 08:46:18;;;;;;;13.13;7.17;;;;;;;6.94;90.17;99524.50;5026143;28;20195;-69
2023/11/11 08:48:45;;;;;;;12.10;7.00;;;;;;;7.03;88.98;99519.16;5027638;28;20573;-69
2023/11/11 08:51:12;;;;;;;8.73;6.00;;;;;;;7.10;89.09;99527.28;5013734;28;20246;-69
2023/11/11 08:53:38;;;;;;;8.63;5.90;;;;;;;7.17;88.95;99530.88;5031590;28;20236;-71
2023/11/11 08:56:05;;;;;;;9.30;5.77;;;;;;;7.23;88.48;99526.19;5031863;28;20203;-71
2023/11/11 08:58:33;;;;;;;7.80;5.27;;;;;;;7.30;87.54;99529.03;5027985;28;20212;-70
2023/11/11 09:01:00;;;;;;;7.77;5.17;;;;;;;7.37;88.13;99531.88;5010654;28;20205;-70
2023/11/11 09:03:27;;;;;;;7.80;5.37;;;;;;;7.42;87.19;99537.69;5028150;28;20632;-70
2023/11/11 09:05:55;;;;;;;6.47;5.00;;;;;;;7.48;86.60;99536.34;5031165;28;20206;-70
2023/11/11 09:08:22;;;;;;;6.23;5.07;;;;;;;7.54;85.55;99534.25;5029915;28;20726;-70
2023/11/11 09:10:49;;;;;;;8.20;5.50;;;;;;;7.60;85.89;99543.44;5029394;28;20323;-70
2023/11/11 09:13:17;;;;;;;7.70;5.23;;;;;;;7.65;85.67;99544.00;5029661;28;20239;-70
2023/11/11 09:15:44;;;;;;;7.43;4.57;;;;;;;7.71;85.20;99545.28;5033843;28;20227;-70
2023/11/11 09:18:11;;;;;;;6.80;5.03;;;;;;;7.77;84.96;99537.97;5031696;28;20219;-69
2023/11/11 09:20:37;;;;;;;9.77;5.10;;;;;;;7.82;84.66;99537.75;5010008;28;20926;-70
2023/11/11 09:23:04;;;;;;;6.60;4.30;;;;;;;7.89;84.48;99540.56;5026631;28;20244;-70
2023/11/11 09:25:31;;;;;;;7.03;4.50;;;;;;;7.96;85.11;99532.88;5033683;28;20665;-71
2023/11/11 09:27:57;;;;;;;7.90;4.80;;;;;;;8.02;83.92;99534.19;5015364;28;20202;-69
2023/11/11 09:30:24;;;;;;;7.60;5.10;;;;;;;8.07;83.26;99528.69;5032670;28;20416;-70
2023/11/11 09:32:53;;;;;;;7.40;5.33;;;;;;;8.11;82.73;99534.78;5028624;28;20229;-69
2023/11/11 09:35:19;;;;;;;7.37;5.03;;;;;;;8.20;83.08;99536.25;5030399;28;20213;-71
2023/11/11 09:37:48;;;;;;;7.83;4.63;;;;;;;8.25;82.29;99535.22;5034713;28;20202;-70
2023/11/11 09:40:14;;;;;;;7.00;4.70;;;;;;;8.31;82.47;99542.53;5017833;28;20220;-69
2023/11/11 09:42:42;;;;;;;7.63;4.50;;;;;;;8.38;82.80;99544.59;5039118;28;20214;-68
2023/11/11 09:45:13;;;;;;;7.73;5.03;;;;;;;8.43;81.88;99547.75;5037030;28;20217;-69
2023/11/11 09:47:42;;;;;;;7.23;4.83;;;;;;;8.48;82.18;99539.63;5039230;28;20687;-70
2023/11/11 09:50:13;;;;;;;8.00;5.20;;;;;;;8.56;82.08;99545.81;5036357;28;20221;-70
2023/11/11 09:52:40;;;;;;;7.30;4.33;;;;;;;8.61;81.78;99548.22;5041328;28;20202;-71
2023/11/11 09:55:08;;;;;;;7.40;5.10;;;;;;;8.67;81.63;99539.75;5036463;28;20214;-71
2023/11/11 09:57:36;;;;;;;6.80;4.77;;;;;;;8.74;79.83;99542.56;5035805;28;20232;-70
2023/11/11 10:00:05;;;;;;;7.23;5.03;;;;;;;8.81;80.00;99542.72;5034104;28;20387;-71
2023/11/11 10:02:38;;;;;;;8.70;5.20;;;;;;;8.88;81.26;99547.41;5037330;28;20212;-70
2023/11/11 10:05:05;;;;;;;7.67;5.03;;;;;;;8.94;79.90;99543.41;5034700;28;20208;-68
2023/11/11 10:07:33;;;;;;;6.37;5.40;;;;;;;9.00;79.75;99542.06;5032479;28;20212;-70
2023/11/11 10:10:00;;;;;;;6.40;4.83;;;;;;;9.07;80.64;99536.97;5037576;28;20210;-70
2023/11/11 10:12:27;;;;;;;8.93;4.97;;;;;;;9.15;79.96;99536.03;5036041;28;20277;-70
2023/11/11 10:14:54;;;;;;;5.33;4.53;;;;;;;9.24;78.90;99547.16;5036550;28;20743;-70
2023/11/11 10:17:20;;;;;;;7.43;4.27;;;;;;;9.29;79.31;99539.00;5035322;28;21482;-68
2023/11/11 10:19:47;;;;;;;5.90;4.30;;;;;;;9.35;77.85;99532.34;5036028;28;20242;-71
2023/11/11 10:22:13;;;;;;;5.90;4.57;;;;;;;9.41;77.81;99529.13;5031043;28;20211;-69
2023/11/11 10:24:46;;;;;;;5.20;3.97;;;;;;;9.48;76.68;99533.78;5035253;28;20223;-70
2023/11/11 10:27:12;;;;;;;6.20;3.97;;;;;;;9.55;78.41;99536.56;5036542;28;20261;-69
2023/11/11 10:29:38;;;;;;;5.03;4.00;;;;;;;9.60;76.85;99538.94;5038626;28;20563;-71
2023/11/11 10:32:09;;;;;;;5.70;4.17;;;;;;;9.63;76.77;99536.38;5037881;28;20222;-68
2023/11/11 10:34:36;;;;;;;7.77;4.20;;;;;;;9.61;76.73;99525.44;5037776;28;20222;-70
2023/11/11 10:37:03;;;;;;;5.67;4.43;;;;;;;9.62;76.16;99534.88;5035450;28;20201;-69
2023/11/11 10:39:33;;;;;;;6.53;4.33;;;;;;;9.62;76.49;99531.47;5039971;28;20203;-70
2023/11/11 10:42:01;;;;;;;6.93;4.00;;;;;;;9.57;75.11;99531.75;5040236;28;20214;-71
2023/11/11 10:44:28;;;;;;;4.50;3.37;;;;;;;9.53;75.20;99521.09;5037191;28;20230;-69
2023/11/11 10:46:55;;;;;;;6.67;3.73;;;;;;;9.50;76.54;99523.66;5034061;28;20214;-68
2023/11/11 10:49:23;;;;;;;5.00;4.00;;;;;;;9.47;75.63;99529.63;5038114;28;24923;-71
2023/11/11 10:51:51;;;;;;;7.63;4.87;;;;;;;9.43;75.98;99526.16;5020957;28;20226;-71
2023/11/11 10:54:20;;;;;;;4.97;3.57;;;;;;;9.40;75.33;99527.59;5038896;28;20234;-69
2023/11/11 10:56:47;;;;;;;6.53;3.63;;;;;;;9.39;75.26;99535.84;5037260;28;20221;-69
2023/11/11 10:59:15;;;;;;;7.90;4.50;;;;;;;9.37;74.81;99528.28;5034677;28;20592;-68
2023/11/11 11:01:42;;;;;;;4.07;3.00;;;;;;;9.37;75.02;99524.88;5032705;28;20608;-70
2023/11/11 11:04:10;;;;;;;11.13;5.87;;;;;;;9.39;76.39;99525.31;5035467;28;20608;-71
2023/11/11 11:06:41;;;;;;;9.53;7.00;;;;;;;9.40;75.31;99524.19;5032722;28;20213;-71
2023/11/11 11:09:21;;;;;;;5.97;3.90;;;;;;;9.45;75.92;99531.84;5016993;28;20310;-71
2023/11/11 11:12:02;;;;;;;4.27;3.40;;;;;;;9.50;76.31;99534.22;5035460;28;20251;-71
2023/11/11 11:14:42;;;;;;;7.50;5.20;;;;;;;9.55;75.47;99534.72;5034277;28;20636;-72
2023/11/11 11:17:08;;;;;;;8.07;5.20;;;;;;;9.61;75.68;99533.34;5030800;28;20245;-71
2023/11/11 11:19:51;;;;;;;7.70;5.10;;;;;;;9.67;76.10;99537.22;5036951;28;20215;-71
2023/11/11 11:22:17;;;;;;;4.47;3.60;;;;;;;9.74;74.93;99540.00;5030006;28;21282;-71
2023/11/11 11:24:45;;;;;;;5.53;3.70;;;;;;;9.82;74.25;99533.03;5037057;28;20242;-71
2023/11/11 11:27:12;;;;;;;4.43;3.27;;;;;;;9.87;75.40;99543.28;5033375;28;20215;-71
2023/11/11 11:29:40;;;;;;;5.23;2.97;;;;;;;9.92;72.21;99537.75;5036823;28;20201;-69
2023/11/11 11:32:08;;;;;;;9.93;4.07;;;;;;;9.95;72.46;99545.72;5030690;28;20322;-69
2023/11/11 11:34:35;;;;;;;4.03;3.10;;;;;;;10.00;73.01;99542.81;5031717;28;20235;-72
2023/11/11 11:37:02;;;;;;;12.10;5.40;;;;;;;10.05;73.67;99539.94;5033102;28;20275;-70
2023/11/11 11:39:35;;;;;;;7.87;4.97;;;;;;;10.09;71.66;99540.78;5030444;28;20238;-68